sensor_id;sensor_type;location;lat;lon;timestamp;temperature;humidity
2751;DHT22;1383;48.362;10.908;2024-02-26T00:02:24;5.60;59.70
2751;DHT22;1383;48.362;10.908;2024-02-26T00:04:51;5.70;59.70
2751;DHT22;1383;48.362;10.908;2024-02-26T00:07:18;5.60;59.40
2751;DHT22;1383;48.362;10.908;2024-02-26T00:09:45;5.70;59.30
2751;DHT22;1383;48.362;10.908;2024-02-26T00:12:12;5.60;59.60
2751;DHT22;1383;48.362;10.908;2024-02-26T00:14:39;5.60;59.50
2751;DHT22;1383;48.362;10.908;2024-02-26T00:17:08;5.60;59.40
2751;DHT22;1383;48.362;10.908;2024-02-26T00:19:35;5.60;59.00
2751;DHT22;1383;48.362;10.908;2024-02-26T00:22:02;5.50;59.10
2751;DHT22;1383;48.362;10.908;2024-02-26T00:24:29;5.40;59.30
2751;DHT22;1383;48.362;10.908;2024-02-26T00:26:56;5.30;59.30
2751;DHT22;1383;48.362;10.908;2024-02-26T00:29:23;5.20;60.10
2751;DHT22;1383;48.362;10.908;2024-02-26T00:31:50;5.10;60.40
2751;DHT22;1383;48.362;10.908;2024-02-26T00:34:17;5.10;60.60
2751;DHT22;1383;48.362;10.908;2024-02-26T00:36:44;5.00;60.60
2751;DHT22;1383;48.362;10.908;2024-02-26T00:39:14;4.90;61.40
2751;DHT22;1383;48.362;10.908;2024-02-26T00:41:41;4.90;61.60
2751;DHT22;1383;48.362;10.908;2024-02-26T00:44:08;4.80;62.10
2751;DHT22;1383;48.362;10.908;2024-02-26T00:46:35;4.90;62.20
2751;DHT22;1383;48.362;10.908;2024-02-26T00:49:02;4.90;61.90
2751;DHT22;1383;48.362;10.908;2024-02-26T00:51:30;4.90;62.30
2751;DHT22;1383;48.362;10.908;2024-02-26T00:53:57;5.00;62.20
2751;DHT22;1383;48.362;10.908;2024-02-26T00:56:24;5.00;62.00
2751;DHT22;1383;48.362;10.908;2024-02-26T00:58:51;4.90;61.60
2751;DHT22;1383;48.362;10.908;2024-02-26T01:01:18;4.90;61.90
2751;DHT22;1383;48.362;10.908;2024-02-26T01:03:45;4.90;61.70
2751;DHT22;1383;48.362;10.908;2024-02-26T01:06:12;5.00;62.10
2751;DHT22;1383;48.362;10.908;2024-02-26T01:08:39;5.10;61.80
2751;DHT22;1383;48.362;10.908;2024-02-26T01:11:06;5.10;61.40
2751;DHT22;1383;48.362;10.908;2024-02-26T01:13:34;5.00;61.50
2751;DHT22;1383;48.362;10.908;2024-02-26T01:16:01;5.00;61.30
2751;DHT22;1383;48.362;10.908;2024-02-26T01:18:28;5.00;61.30
2751;DHT22;1383;48.362;10.908;2024-02-26T01:20:56;5.00;60.60
2751;DHT22;1383;48.362;10.908;2024-02-26T01:23:23;5.00;61.60
2751;DHT22;1383;48.362;10.908;2024-02-26T01:25:50;5.10;61.50
2751;DHT22;1383;48.362;10.908;2024-02-26T01:28:16;5.20;61.00
2751;DHT22;1383;48.362;10.908;2024-02-26T01:30:43;5.20;60.30
2751;DHT22;1383;48.362;10.908;2024-02-26T01:33:10;5.20;60.40
2751;DHT22;1383;48.362;10.908;2024-02-26T01:35:37;5.20;59.30
2751;DHT22;1383;48.362;10.908;2024-02-26T01:38:04;5.10;60.00
2751;DHT22;1383;48.362;10.908;2024-02-26T01:40:31;5.20;59.90
2751;DHT22;1383;48.362;10.908;2024-02-26T01:42:59;5.20;59.80
2751;DHT22;1383;48.362;10.908;2024-02-26T01:45:26;5.20;59.70
2751;DHT22;1383;48.362;10.908;2024-02-26T01:47:53;5.20;59.60
2751;DHT22;1383;48.362;10.908;2024-02-26T01:50:21;5.20;59.60
2751;DHT22;1383;48.362;10.908;2024-02-26T01:52:50;5.10;59.90
2751;DHT22;1383;48.362;10.908;2024-02-26T01:55:20;5.00;60.00
2751;DHT22;1383;48.362;10.908;2024-02-26T01:57:49;4.90;60.10
2751;DHT22;1383;48.362;10.908;2024-02-26T02:00:18;4.90;61.10
2751;DHT22;1383;48.362;10.908;2024-02-26T02:02:47;4.90;61.10
2751;DHT22;1383;48.362;10.908;2024-02-26T02:05:20;5.00;61.30
2751;DHT22;1383;48.362;10.908;2024-02-26T02:07:47;5.00;60.60
2751;DHT22;1383;48.362;10.908;2024-02-26T02:10:16;5.00;61.30
2751;DHT22;1383;48.362;10.908;2024-02-26T02:12:45;5.00;61.10
2751;DHT22;1383;48.362;10.908;2024-02-26T02:15:12;5.00;60.90
2751;DHT22;1383;48.362;10.908;2024-02-26T02:17:39;5.00;60.70
2751;DHT22;1383;48.362;10.908;2024-02-26T02:20:32;4.90;60.60
2751;DHT22;1383;48.362;10.908;2024-02-26T02:23:00;4.80;61.00
2751;DHT22;1383;48.362;10.908;2024-02-26T02:25:27;4.80;61.50
2751;DHT22;1383;48.362;10.908;2024-02-26T02:27:55;4.70;62.20
2751;DHT22;1383;48.362;10.908;2024-02-26T02:30:28;4.70;62.20
2751;DHT22;1383;48.362;10.908;2024-02-26T02:32:57;4.70;62.50
2751;DHT22;1383;48.362;10.908;2024-02-26T02:35:25;4.70;62.50
2751;DHT22;1383;48.362;10.908;2024-02-26T02:37:53;4.60;62.70
2751;DHT22;1383;48.362;10.908;2024-02-26T02:40:20;4.70;63.20
2751;DHT22;1383;48.362;10.908;2024-02-26T02:42:46;4.60;62.30
2751;DHT22;1383;48.362;10.908;2024-02-26T02:45:13;4.60;62.60
2751;DHT22;1383;48.362;10.908;2024-02-26T02:47:40;4.60;62.70
2751;DHT22;1383;48.362;10.908;2024-02-26T02:50:08;4.70;62.30
2751;DHT22;1383;48.362;10.908;2024-02-26T02:52:35;4.70;61.90
2751;DHT22;1383;48.362;10.908;2024-02-26T02:55:02;4.50;61.90
2751;DHT22;1383;48.362;10.908;2024-02-26T02:57:30;4.40;62.50
2751;DHT22;1383;48.362;10.908;2024-02-26T02:59:58;4.40;63.20
2751;DHT22;1383;48.362;10.908;2024-02-26T03:02:25;4.50;63.40
2751;DHT22;1383;48.362;10.908;2024-02-26T03:04:52;4.60;62.80
2751;DHT22;1383;48.362;10.908;2024-02-26T03:07:18;4.60;62.20
2751;DHT22;1383;48.362;10.908;2024-02-26T03:09:45;4.60;61.40
2751;DHT22;1383;48.362;10.908;2024-02-26T03:12:13;4.60;61.50
2751;DHT22;1383;48.362;10.908;2024-02-26T03:14:39;4.70;61.40
2751;DHT22;1383;48.362;10.908;2024-02-26T03:17:06;4.80;60.80
2751;DHT22;1383;48.362;10.908;2024-02-26T03:19:33;4.80;60.20
2751;DHT22;1383;48.362;10.908;2024-02-26T03:22:00;4.90;60.00
2751;DHT22;1383;48.362;10.908;2024-02-26T03:24:27;5.00;59.60
2751;DHT22;1383;48.362;10.908;2024-02-26T03:26:54;5.10;60.00
2751;DHT22;1383;48.362;10.908;2024-02-26T03:29:21;5.10;58.80
2751;DHT22;1383;48.362;10.908;2024-02-26T03:31:48;5.20;58.20
2751;DHT22;1383;48.362;10.908;2024-02-26T03:34:15;5.20;58.10
2751;DHT22;1383;48.362;10.908;2024-02-26T03:36:42;5.20;57.60
2751;DHT22;1383;48.362;10.908;2024-02-26T03:39:10;5.10;57.50
2751;DHT22;1383;48.362;10.908;2024-02-26T03:41:37;5.10;58.20
2751;DHT22;1383;48.362;10.908;2024-02-26T03:44:04;5.10;58.20
2751;DHT22;1383;48.362;10.908;2024-02-26T03:46:31;5.20;58.30
2751;DHT22;1383;48.362;10.908;2024-02-26T03:48:58;5.20;58.30
2751;DHT22;1383;48.362;10.908;2024-02-26T03:51:25;5.20;58.20
2751;DHT22;1383;48.362;10.908;2024-02-26T03:53:53;5.20;58.20
2751;DHT22;1383;48.362;10.908;2024-02-26T03:56:20;5.20;58.20
2751;DHT22;1383;48.362;10.908;2024-02-26T03:58:47;5.20;57.90
2751;DHT22;1383;48.362;10.908;2024-02-26T04:01:14;5.20;57.60
2751;DHT22;1383;48.362;10.908;2024-02-26T04:03:41;5.30;57.10
2751;DHT22;1383;48.362;10.908;2024-02-26T04:06:09;5.10;57.10
2751;DHT22;1383;48.362;10.908;2024-02-26T04:08:37;5.10;57.50
2751;DHT22;1383;48.362;10.908;2024-02-26T04:11:04;5.10;57.50
2751;DHT22;1383;48.362;10.908;2024-02-26T04:13:34;5.00;58.20
2751;DHT22;1383;48.362;10.908;2024-02-26T04:16:01;5.00;58.10
2751;DHT22;1383;48.362;10.908;2024-02-26T04:18:29;5.10;57.70
2751;DHT22;1383;48.362;10.908;2024-02-26T04:20:56;5.20;57.50
2751;DHT22;1383;48.362;10.908;2024-02-26T04:23:24;5.20;57.10
2751;DHT22;1383;48.362;10.908;2024-02-26T04:25:51;5.20;56.90
2751;DHT22;1383;48.362;10.908;2024-02-26T04:28:20;5.20;56.50
2751;DHT22;1383;48.362;10.908;2024-02-26T04:30:52;5.30;56.60
2751;DHT22;1383;48.362;10.908;2024-02-26T04:33:19;5.20;56.50
2751;DHT22;1383;48.362;10.908;2024-02-26T04:35:46;5.20;56.20
2751;DHT22;1383;48.362;10.908;2024-02-26T04:38:14;5.30;56.50
2751;DHT22;1383;48.362;10.908;2024-02-26T04:40:41;5.30;55.90
2751;DHT22;1383;48.362;10.908;2024-02-26T04:43:08;5.30;56.00
2751;DHT22;1383;48.362;10.908;2024-02-26T04:45:34;5.20;55.40
2751;DHT22;1383;48.362;10.908;2024-02-26T04:48:01;5.20;55.90
2751;DHT22;1383;48.362;10.908;2024-02-26T04:50:29;5.20;55.50
2751;DHT22;1383;48.362;10.908;2024-02-26T04:52:55;5.20;55.30
2751;DHT22;1383;48.362;10.908;2024-02-26T04:55:22;5.30;55.20
2751;DHT22;1383;48.362;10.908;2024-02-26T04:57:49;5.30;54.80
2751;DHT22;1383;48.362;10.908;2024-02-26T05:00:16;5.30;55.90
2751;DHT22;1383;48.362;10.908;2024-02-26T05:02:43;5.30;54.90
2751;DHT22;1383;48.362;10.908;2024-02-26T05:05:10;5.20;54.80
2751;DHT22;1383;48.362;10.908;2024-02-26T05:07:40;5.20;55.00
2751;DHT22;1383;48.362;10.908;2024-02-26T05:10:08;5.10;55.70
2751;DHT22;1383;48.362;10.908;2024-02-26T05:12:37;5.10;55.70
2751;DHT22;1383;48.362;10.908;2024-02-26T05:15:04;5.00;56.10
2751;DHT22;1383;48.362;10.908;2024-02-26T05:17:32;5.00;56.40
2751;DHT22;1383;48.362;10.908;2024-02-26T05:19:59;5.10;56.30
2751;DHT22;1383;48.362;10.908;2024-02-26T05:22:26;5.20;56.20
2751;DHT22;1383;48.362;10.908;2024-02-26T05:24:53;5.20;55.70
2751;DHT22;1383;48.362;10.908;2024-02-26T05:27:20;5.30;55.40
2751;DHT22;1383;48.362;10.908;2024-02-26T05:29:47;5.30;55.00
2751;DHT22;1383;48.362;10.908;2024-02-26T05:32:14;5.30;54.50
2751;DHT22;1383;48.362;10.908;2024-02-26T05:34:41;5.30;54.30
2751;DHT22;1383;48.362;10.908;2024-02-26T05:37:08;5.20;54.30
2751;DHT22;1383;48.362;10.908;2024-02-26T05:39:35;5.30;54.40
2751;DHT22;1383;48.362;10.908;2024-02-26T05:42:02;5.30;54.30
2751;DHT22;1383;48.362;10.908;2024-02-26T05:44:29;5.40;54.40
2751;DHT22;1383;48.362;10.908;2024-02-26T05:46:56;5.30;54.60
2751;DHT22;1383;48.362;10.908;2024-02-26T05:49:23;5.10;55.00
2751;DHT22;1383;48.362;10.908;2024-02-26T05:51:50;5.00;57.10
2751;DHT22;1383;48.362;10.908;2024-02-26T05:54:17;4.90;57.30
2751;DHT22;1383;48.362;10.908;2024-02-26T05:56:44;4.90;58.30
2751;DHT22;1383;48.362;10.908;2024-02-26T05:59:11;4.90;57.40
2751;DHT22;1383;48.362;10.908;2024-02-26T06:01:38;4.90;58.80
2751;DHT22;1383;48.362;10.908;2024-02-26T06:04:04;4.80;57.80
2751;DHT22;1383;48.362;10.908;2024-02-26T06:06:31;4.60;58.60
2751;DHT22;1383;48.362;10.908;2024-02-26T06:08:58;4.60;59.20
2751;DHT22;1383;48.362;10.908;2024-02-26T06:11:25;4.60;59.70
2751;DHT22;1383;48.362;10.908;2024-02-26T06:13:52;4.60;59.80
2751;DHT22;1383;48.362;10.908;2024-02-26T06:16:19;4.70;60.00
2751;DHT22;1383;48.362;10.908;2024-02-26T06:18:46;4.70;59.50
2751;DHT22;1383;48.362;10.908;2024-02-26T06:21:13;4.70;59.40
2751;DHT22;1383;48.362;10.908;2024-02-26T06:23:40;4.70;59.80
2751;DHT22;1383;48.362;10.908;2024-02-26T06:26:08;4.80;59.90
2751;DHT22;1383;48.362;10.908;2024-02-26T06:28:36;4.90;59.30
2751;DHT22;1383;48.362;10.908;2024-02-26T06:31:07;5.10;58.30
2751;DHT22;1383;48.362;10.908;2024-02-26T06:33:34;5.10;57.50
2751;DHT22;1383;48.362;10.908;2024-02-26T06:36:01;5.20;57.40
2751;DHT22;1383;48.362;10.908;2024-02-26T06:38:28;5.20;56.80
2751;DHT22;1383;48.362;10.908;2024-02-26T06:40:55;5.30;56.60
2751;DHT22;1383;48.362;10.908;2024-02-26T06:43:21;5.30;55.60
2751;DHT22;1383;48.362;10.908;2024-02-26T06:45:48;5.40;55.90
2751;DHT22;1383;48.362;10.908;2024-02-26T06:48:15;5.50;55.20
2751;DHT22;1383;48.362;10.908;2024-02-26T06:50:42;5.30;55.00
2751;DHT22;1383;48.362;10.908;2024-02-26T06:53:09;5.30;55.50
2751;DHT22;1383;48.362;10.908;2024-02-26T06:55:36;5.40;55.60
2751;DHT22;1383;48.362;10.908;2024-02-26T06:58:06;5.00;55.70
2751;DHT22;1383;48.362;10.908;2024-02-26T07:00:34;5.10;57.00
2751;DHT22;1383;48.362;10.908;2024-02-26T07:03:01;5.00;57.10
2751;DHT22;1383;48.362;10.908;2024-02-26T07:05:28;5.00;57.50
2751;DHT22;1383;48.362;10.908;2024-02-26T07:07:55;5.00;57.70
2751;DHT22;1383;48.362;10.908;2024-02-26T07:10:23;5.00;58.30
2751;DHT22;1383;48.362;10.908;2024-02-26T07:12:50;4.80;59.30
2751;DHT22;1383;48.362;10.908;2024-02-26T07:15:16;4.70;60.00
2751;DHT22;1383;48.362;10.908;2024-02-26T07:17:43;4.70;60.30
2751;DHT22;1383;48.362;10.908;2024-02-26T07:20:14;4.80;60.60
2751;DHT22;1383;48.362;10.908;2024-02-26T07:22:43;4.90;59.30
2751;DHT22;1383;48.362;10.908;2024-02-26T07:25:10;4.80;58.40
2751;DHT22;1383;48.362;10.908;2024-02-26T07:27:40;4.90;59.30
2751;DHT22;1383;48.362;10.908;2024-02-26T07:30:07;5.00;57.40
2751;DHT22;1383;48.362;10.908;2024-02-26T07:32:36;5.00;58.30
2751;DHT22;1383;48.362;10.908;2024-02-26T07:35:03;5.30;57.70
2751;DHT22;1383;48.362;10.908;2024-02-26T07:37:30;5.40;57.00
2751;DHT22;1383;48.362;10.908;2024-02-26T07:39:57;5.60;56.10
2751;DHT22;1383;48.362;10.908;2024-02-26T07:42:24;5.60;55.20
2751;DHT22;1383;48.362;10.908;2024-02-26T07:44:51;5.70;54.40
2751;DHT22;1383;48.362;10.908;2024-02-26T07:47:19;5.70;53.20
2751;DHT22;1383;48.362;10.908;2024-02-26T07:49:46;5.70;54.30
2751;DHT22;1383;48.362;10.908;2024-02-26T07:52:13;5.80;54.20
2751;DHT22;1383;48.362;10.908;2024-02-26T07:54:40;6.00;53.20
2751;DHT22;1383;48.362;10.908;2024-02-26T07:57:07;6.00;52.90
2751;DHT22;1383;48.362;10.908;2024-02-26T07:59:34;6.20;52.70
2751;DHT22;1383;48.362;10.908;2024-02-26T08:02:01;6.30;51.90
2751;DHT22;1383;48.362;10.908;2024-02-26T08:04:30;6.40;51.20
2751;DHT22;1383;48.362;10.908;2024-02-26T08:06:57;6.20;50.80
2751;DHT22;1383;48.362;10.908;2024-02-26T08:09:24;6.20;51.80
2751;DHT22;1383;48.362;10.908;2024-02-26T08:11:51;6.10;50.40
2751;DHT22;1383;48.362;10.908;2024-02-26T08:14:20;6.00;51.00
2751;DHT22;1383;48.362;10.908;2024-02-26T08:16:47;6.10;52.20
2751;DHT22;1383;48.362;10.908;2024-02-26T08:19:15;6.10;51.80
2751;DHT22;1383;48.362;10.908;2024-02-26T08:21:42;6.10;52.70
2751;DHT22;1383;48.362;10.908;2024-02-26T08:24:09;6.10;52.30
2751;DHT22;1383;48.362;10.908;2024-02-26T08:26:37;6.20;52.30
2751;DHT22;1383;48.362;10.908;2024-02-26T08:29:04;6.30;52.80
2751;DHT22;1383;48.362;10.908;2024-02-26T08:31:30;6.40;52.10
2751;DHT22;1383;48.362;10.908;2024-02-26T08:33:57;6.60;51.50
2751;DHT22;1383;48.362;10.908;2024-02-26T08:36:26;6.50;50.60
2751;DHT22;1383;48.362;10.908;2024-02-26T08:38:53;6.60;51.20
2751;DHT22;1383;48.362;10.908;2024-02-26T08:41:20;6.70;51.10
2751;DHT22;1383;48.362;10.908;2024-02-26T08:43:46;6.70;51.30
2751;DHT22;1383;48.362;10.908;2024-02-26T08:46:14;6.80;51.90
2751;DHT22;1383;48.362;10.908;2024-02-26T08:48:41;6.90;51.80
2751;DHT22;1383;48.362;10.908;2024-02-26T08:51:09;6.90;51.90
2751;DHT22;1383;48.362;10.908;2024-02-26T08:53:36;6.90;52.20
2751;DHT22;1383;48.362;10.908;2024-02-26T08:56:09;7.00;51.50
2751;DHT22;1383;48.362;10.908;2024-02-26T08:58:38;7.00;51.60
2751;DHT22;1383;48.362;10.908;2024-02-26T09:01:05;7.10;51.80
2751;DHT22;1383;48.362;10.908;2024-02-26T09:03:32;7.20;51.60
2751;DHT22;1383;48.362;10.908;2024-02-26T09:05:59;7.30;50.70
2751;DHT22;1383;48.362;10.908;2024-02-26T09:08:26;7.40;50.60
2751;DHT22;1383;48.362;10.908;2024-02-26T09:10:52;7.40;50.30
2751;DHT22;1383;48.362;10.908;2024-02-26T09:13:19;7.40;50.80
2751;DHT22;1383;48.362;10.908;2024-02-26T09:15:48;7.30;51.30
2751;DHT22;1383;48.362;10.908;2024-02-26T09:18:14;7.10;51.10
2751;DHT22;1383;48.362;10.908;2024-02-26T09:20:41;7.00;52.00
2751;DHT22;1383;48.362;10.908;2024-02-26T09:23:09;7.00;52.40
2751;DHT22;1383;48.362;10.908;2024-02-26T09:25:36;7.00;52.70
2751;DHT22;1383;48.362;10.908;2024-02-26T09:28:03;7.10;52.80
2751;DHT22;1383;48.362;10.908;2024-02-26T09:30:30;7.10;52.80
2751;DHT22;1383;48.362;10.908;2024-02-26T09:32:57;7.20;52.70
2751;DHT22;1383;48.362;10.908;2024-02-26T09:35:24;7.30;52.70
2751;DHT22;1383;48.362;10.908;2024-02-26T09:37:52;7.60;52.20
2751;DHT22;1383;48.362;10.908;2024-02-26T09:40:20;7.90;51.20
2751;DHT22;1383;48.362;10.908;2024-02-26T09:42:58;8.00;49.40
2751;DHT22;1383;48.362;10.908;2024-02-26T09:45:26;8.10;48.20
2751;DHT22;1383;48.362;10.908;2024-02-26T09:47:55;8.00;47.70
2751;DHT22;1383;48.362;10.908;2024-02-26T09:50:23;7.90;47.50
2751;DHT22;1383;48.362;10.908;2024-02-26T09:52:51;7.90;47.90
2751;DHT22;1383;48.362;10.908;2024-02-26T09:55:19;8.00;48.00
2751;DHT22;1383;48.362;10.908;2024-02-26T09:57:46;8.40;48.40
2751;DHT22;1383;48.362;10.908;2024-02-26T10:00:21;8.70;47.80
2751;DHT22;1383;48.362;10.908;2024-02-26T10:02:49;8.90;46.40
2751;DHT22;1383;48.362;10.908;2024-02-26T10:05:18;9.20;45.60
2751;DHT22;1383;48.362;10.908;2024-02-26T10:07:46;9.50;44.50
2751;DHT22;1383;48.362;10.908;2024-02-26T10:10:14;9.60;44.30
2751;DHT22;1383;48.362;10.908;2024-02-26T10:12:46;9.80;43.90
2751;DHT22;1383;48.362;10.908;2024-02-26T10:15:13;10.00;41.80
2751;DHT22;1383;48.362;10.908;2024-02-26T10:17:41;9.90;42.10
2751;DHT22;1383;48.362;10.908;2024-02-26T10:20:16;9.80;42.90
2751;DHT22;1383;48.362;10.908;2024-02-26T10:22:45;9.80;43.20
2751;DHT22;1383;48.362;10.908;2024-02-26T10:25:12;10.10;41.60
2751;DHT22;1383;48.362;10.908;2024-02-26T10:27:42;10.00;41.50
2751;DHT22;1383;48.362;10.908;2024-02-26T10:30:20;10.20;41.50
2751;DHT22;1383;48.362;10.908;2024-02-26T10:32:49;10.20;40.30
2751;DHT22;1383;48.362;10.908;2024-02-26T10:35:18;10.30;40.50
2751;DHT22;1383;48.362;10.908;2024-02-26T10:37:48;10.20;40.20
2751;DHT22;1383;48.362;10.908;2024-02-26T10:40:16;10.30;40.60
2751;DHT22;1383;48.362;10.908;2024-02-26T10:42:43;10.50;39.70
2751;DHT22;1383;48.362;10.908;2024-02-26T10:45:12;10.70;39.20
2751;DHT22;1383;48.362;10.908;2024-02-26T10:47:40;10.50;38.60
2751;DHT22;1383;48.362;10.908;2024-02-26T10:50:13;10.50;39.20
2751;DHT22;1383;48.362;10.908;2024-02-26T10:52:42;10.20;40.40
2751;DHT22;1383;48.362;10.908;2024-02-26T10:55:15;10.00;40.80
2751;DHT22;1383;48.362;10.908;2024-02-26T10:57:45;9.90;42.60
2751;DHT22;1383;48.362;10.908;2024-02-26T11:00:15;9.70;42.90
2751;DHT22;1383;48.362;10.908;2024-02-26T11:02:45;9.60;43.70
2751;DHT22;1383;48.362;10.908;2024-02-26T11:05:14;9.70;43.80
2751;DHT22;1383;48.362;10.908;2024-02-26T11:07:41;10.00;42.20
2751;DHT22;1383;48.362;10.908;2024-02-26T11:10:09;10.10;41.50
2751;DHT22;1383;48.362;10.908;2024-02-26T11:12:39;10.10;39.90
2751;DHT22;1383;48.362;10.908;2024-02-26T11:15:06;10.20;40.10
2751;DHT22;1383;48.362;10.908;2024-02-26T11:17:35;10.20;40.00
2751;DHT22;1383;48.362;10.908;2024-02-26T11:20:04;10.30;39.30
2751;DHT22;1383;48.362;10.908;2024-02-26T11:22:32;10.40;38.40
2751;DHT22;1383;48.362;10.908;2024-02-26T11:25:00;10.40;38.50
2751;DHT22;1383;48.362;10.908;2024-02-26T11:27:30;10.30;37.90
2751;DHT22;1383;48.362;10.908;2024-02-26T11:30:00;10.10;37.80
2751;DHT22;1383;48.362;10.908;2024-02-26T11:32:30;10.00;38.00
2751;DHT22;1383;48.362;10.908;2024-02-26T11:35:00;10.10;37.20
2751;DHT22;1383;48.362;10.908;2024-02-26T11:37:27;10.30;37.30
2751;DHT22;1383;48.362;10.908;2024-02-26T11:39:54;10.40;36.80
2751;DHT22;1383;48.362;10.908;2024-02-26T11:42:25;10.60;37.20
2751;DHT22;1383;48.362;10.908;2024-02-26T11:44:53;10.60;37.50
2751;DHT22;1383;48.362;10.908;2024-02-26T11:47:21;10.60;37.60
2751;DHT22;1383;48.362;10.908;2024-02-26T11:49:49;10.40;37.70
2751;DHT22;1383;48.362;10.908;2024-02-26T11:52:17;10.30;38.10
2751;DHT22;1383;48.362;10.908;2024-02-26T11:54:46;10.40;38.60
2751;DHT22;1383;48.362;10.908;2024-02-26T11:57:37;10.20;38.70
2751;DHT22;1383;48.362;10.908;2024-02-26T12:05:21;10.40;38.70
2751;DHT22;1383;48.362;10.908;2024-02-26T12:08:02;10.40;39.20
2751;DHT22;1383;48.362;10.908;2024-02-26T12:10:36;10.50;39.40
2751;DHT22;1383;48.362;10.908;2024-02-26T12:15:37;10.40;40.30
2751;DHT22;1383;48.362;10.908;2024-02-26T12:18:06;10.40;40.30
2751;DHT22;1383;48.362;10.908;2024-02-26T12:20:35;10.40;40.50
2751;DHT22;1383;48.362;10.908;2024-02-26T12:23:03;10.40;41.10
2751;DHT22;1383;48.362;10.908;2024-02-26T12:25:31;10.40;41.30
2751;DHT22;1383;48.362;10.908;2024-02-26T12:28:04;10.30;41.60
2751;DHT22;1383;48.362;10.908;2024-02-26T12:30:31;10.50;42.30
2751;DHT22;1383;48.362;10.908;2024-02-26T12:32:58;10.80;42.40
2751;DHT22;1383;48.362;10.908;2024-02-26T12:35:28;11.00;40.90
2751;DHT22;1383;48.362;10.908;2024-02-26T12:37:55;11.10;40.60
2751;DHT22;1383;48.362;10.908;2024-02-26T12:40:22;11.10;39.90
2751;DHT22;1383;48.362;10.908;2024-02-26T12:42:50;11.30;40.20
2751;DHT22;1383;48.362;10.908;2024-02-26T12:45:17;11.50;40.20
2751;DHT22;1383;48.362;10.908;2024-02-26T12:47:45;11.30;38.70
2751;DHT22;1383;48.362;10.908;2024-02-26T12:50:18;11.40;36.40
2751;DHT22;1383;48.362;10.908;2024-02-26T12:52:46;11.40;35.20
2751;DHT22;1383;48.362;10.908;2024-02-26T12:55:15;11.60;35.60
2751;DHT22;1383;48.362;10.908;2024-02-26T12:57:44;11.70;34.90
2751;DHT22;1383;48.362;10.908;2024-02-26T13:00:22;11.80;34.70
2751;DHT22;1383;48.362;10.908;2024-02-26T13:02:51;12.00;34.10
2751;DHT22;1383;48.362;10.908;2024-02-26T13:05:18;12.10;33.30
2751;DHT22;1383;48.362;10.908;2024-02-26T13:07:46;12.10;33.40
2751;DHT22;1383;48.362;10.908;2024-02-26T13:10:18;12.10;33.80
2751;DHT22;1383;48.362;10.908;2024-02-26T13:12:46;12.00;33.70
2751;DHT22;1383;48.362;10.908;2024-02-26T13:15:19;11.90;33.60
2751;DHT22;1383;48.362;10.908;2024-02-26T13:17:47;11.80;34.30
2751;DHT22;1383;48.362;10.908;2024-02-26T13:20:29;11.60;35.40
2751;DHT22;1383;48.362;10.908;2024-02-26T13:23:05;11.70;34.50
2751;DHT22;1383;48.362;10.908;2024-02-26T13:25:33;11.80;34.50
2751;DHT22;1383;48.362;10.908;2024-02-26T13:28:17;11.70;35.00
2751;DHT22;1383;48.362;10.908;2024-02-26T13:30:55;11.80;35.50
2751;DHT22;1383;48.362;10.908;2024-02-26T13:33:25;11.80;35.40
2751;DHT22;1383;48.362;10.908;2024-02-26T13:35:53;11.70;35.50
2751;DHT22;1383;48.362;10.908;2024-02-26T13:38:20;11.70;35.50
2751;DHT22;1383;48.362;10.908;2024-02-26T13:40:47;11.60;35.90
2751;DHT22;1383;48.362;10.908;2024-02-26T13:43:14;11.40;36.50
2751;DHT22;1383;48.362;10.908;2024-02-26T13:45:41;11.30;37.10
2751;DHT22;1383;48.362;10.908;2024-02-26T13:48:09;11.30;37.20
2751;DHT22;1383;48.362;10.908;2024-02-26T13:50:40;11.40;37.30
2751;DHT22;1383;48.362;10.908;2024-02-26T13:53:09;11.50;37.30
2751;DHT22;1383;48.362;10.908;2024-02-26T13:55:37;11.60;37.40
2751;DHT22;1383;48.362;10.908;2024-02-26T13:58:05;11.70;36.80
2751;DHT22;1383;48.362;10.908;2024-02-26T14:00:32;11.70;36.90
2751;DHT22;1383;48.362;10.908;2024-02-26T14:03:01;11.70;37.00
2751;DHT22;1383;48.362;10.908;2024-02-26T14:05:28;11.70;37.20
2751;DHT22;1383;48.362;10.908;2024-02-26T14:07:56;11.80;37.10
2751;DHT22;1383;48.362;10.908;2024-02-26T14:10:23;11.70;37.90
2751;DHT22;1383;48.362;10.908;2024-02-26T14:12:50;11.70;38.30
2751;DHT22;1383;48.362;10.908;2024-02-26T14:15:17;11.50;38.80
2751;DHT22;1383;48.362;10.908;2024-02-26T14:17:44;11.40;39.60
2751;DHT22;1383;48.362;10.908;2024-02-26T14:20:12;11.30;40.00
2751;DHT22;1383;48.362;10.908;2024-02-26T14:22:39;11.30;40.10
2751;DHT22;1383;48.362;10.908;2024-02-26T14:25:07;11.20;40.30
2751;DHT22;1383;48.362;10.908;2024-02-26T14:27:36;11.20;40.80
2751;DHT22;1383;48.362;10.908;2024-02-26T14:30:03;11.10;41.20
2751;DHT22;1383;48.362;10.908;2024-02-26T14:32:31;11.00;41.60
2751;DHT22;1383;48.362;10.908;2024-02-26T14:35:02;10.90;41.80
2751;DHT22;1383;48.362;10.908;2024-02-26T14:37:32;10.90;42.00
2751;DHT22;1383;48.362;10.908;2024-02-26T14:39:59;10.80;42.00
2751;DHT22;1383;48.362;10.908;2024-02-26T14:42:25;10.80;42.30
2751;DHT22;1383;48.362;10.908;2024-02-26T14:44:52;10.70;42.60
2751;DHT22;1383;48.362;10.908;2024-02-26T14:47:19;10.80;42.80
2751;DHT22;1383;48.362;10.908;2024-02-26T14:49:47;10.80;42.70
2751;DHT22;1383;48.362;10.908;2024-02-26T14:52:15;10.70;42.80
2751;DHT22;1383;48.362;10.908;2024-02-26T14:54:42;10.60;43.10
2751;DHT22;1383;48.362;10.908;2024-02-26T14:57:09;10.60;43.60
2751;DHT22;1383;48.362;10.908;2024-02-26T14:59:36;10.50;43.60
2751;DHT22;1383;48.362;10.908;2024-02-26T15:02:06;10.50;43.80
2751;DHT22;1383;48.362;10.908;2024-02-26T15:04:37;10.40;43.80
2751;DHT22;1383;48.362;10.908;2024-02-26T15:07:04;10.50;43.60
2751;DHT22;1383;48.362;10.908;2024-02-26T15:09:31;10.50;43.60
2751;DHT22;1383;48.362;10.908;2024-02-26T15:11:58;10.50;43.90
2751;DHT22;1383;48.362;10.908;2024-02-26T15:14:25;10.60;43.70
2751;DHT22;1383;48.362;10.908;2024-02-26T15:16:52;10.60;43.70
2751;DHT22;1383;48.362;10.908;2024-02-26T15:19:19;10.70;43.90
2751;DHT22;1383;48.362;10.908;2024-02-26T15:21:47;10.70;43.80
2751;DHT22;1383;48.362;10.908;2024-02-26T15:24:15;10.80;43.90
2751;DHT22;1383;48.362;10.908;2024-02-26T15:26:47;10.80;44.30
2751;DHT22;1383;48.362;10.908;2024-02-26T15:29:14;10.70;45.90
2751;DHT22;1383;48.362;10.908;2024-02-26T15:31:41;10.70;46.60
2751;DHT22;1383;48.362;10.908;2024-02-26T15:34:08;10.60;47.00
2751;DHT22;1383;48.362;10.908;2024-02-26T15:36:35;10.60;46.70
2751;DHT22;1383;48.362;10.908;2024-02-26T15:39:02;10.60;46.60
2751;DHT22;1383;48.362;10.908;2024-02-26T15:41:30;10.60;47.20
2751;DHT22;1383;48.362;10.908;2024-02-26T15:43:57;10.60;47.80
2751;DHT22;1383;48.362;10.908;2024-02-26T15:46:24;10.60;47.40
2751;DHT22;1383;48.362;10.908;2024-02-26T15:48:51;10.60;47.50
2751;DHT22;1383;48.362;10.908;2024-02-26T15:51:22;10.60;47.60
2751;DHT22;1383;48.362;10.908;2024-02-26T15:53:51;10.60;47.60
2751;DHT22;1383;48.362;10.908;2024-02-26T15:56:19;10.50;47.90
2751;DHT22;1383;48.362;10.908;2024-02-26T15:58:51;10.50;48.30
2751;DHT22;1383;48.362;10.908;2024-02-26T16:01:19;10.50;48.20
2751;DHT22;1383;48.362;10.908;2024-02-26T16:03:52;10.50;48.90
2751;DHT22;1383;48.362;10.908;2024-02-26T16:06:29;10.40;49.00
2751;DHT22;1383;48.362;10.908;2024-02-26T16:08:58;10.40;50.00
2751;DHT22;1383;48.362;10.908;2024-02-26T16:11:26;10.40;49.50